Time;durP1;ratioP1;P1;durP2;ratioP2;P2;SDS_P1;SDS_P2;PMS_P1;PMS_P2;Temp;Humidity;BMP_temperature;BMP_pressure;BME280_temperature;BME280_humidity;BME280_pressure;Samples;Min_cycle;Max_cycle;Signal;HPM_P1;HPM_P2
2022/08/09 00:01:39;;;;;;;9.50;5.97;;;22.50;27.30;;;;;;4954274;29;20512;-76
2022/08/09 00:04:05;;;;;;;6.60;5.73;;;22.40;27.70;;;;;;4953713;29;20183;-75
2022/08/09 00:06:30;;;;;;;7.47;5.47;;;22.40;29.20;;;;;;4953273;28;20428;-75
2022/08/09 00:08:56;;;;;;;7.87;5.90;;;22.20;29.30;;;;;;4954893;29;20287;-76
2022/08/09 00:11:23;;;;;;;10.17;5.60;;;22.30;29.30;;;;;;4953293;29;20208;-76
2022/08/09 00:13:49;;;;;;;6.43;5.37;;;22.30;29.60;;;;;;4954153;28;20218;-76
2022/08/09 00:16:16;;;;;;;7.90;5.90;;;22.20;29.10;;;;;;4953347;29;20432;-76
2022/08/09 00:18:42;;;;;;;9.60;6.00;;;22.20;28.90;;;;;;4951316;28;20440;-76
2022/08/09 00:21:08;;;;;;;10.03;5.90;;;22.40;27.90;;;;;;4953636;29;20491;-75
2022/08/09 00:23:35;;;;;;;11.30;6.80;;;22.30;28.70;;;;;;4952997;29;20871;-76
2022/08/09 00:26:00;;;;;;;14.90;6.70;;;22.10;29.20;;;;;;4954108;29;20249;-76
2022/08/09 00:28:26;;;;;;;7.20;6.30;;;22.10;30.50;;;;;;4953314;29;20436;-76
2022/08/09 00:30:52;;;;;;;13.93;6.60;;;22.10;29.20;;;;;;4953305;28;20195;-76
2022/08/09 00:33:18;;;;;;;9.77;6.63;;;22.10;29.10;;;;;;4954234;28;20209;-76
2022/08/09 00:35:44;;;;;;;7.07;6.20;;;21.90;30.70;;;;;;4953921;28;20432;-75
2022/08/09 00:38:11;;;;;;;7.93;6.57;;;22.10;30.10;;;;;;4952903;29;20829;-75
2022/08/09 00:40:43;;;;;;;9.17;6.30;;;21.90;30.20;;;;;;4953815;29;20514;-76
2022/08/09 00:43:08;;;;;;;10.13;6.67;;;21.90;29.50;;;;;;4953767;29;20468;-76
2022/08/09 00:45:34;;;;;;;10.93;6.80;;;21.80;30.80;;;;;;4968503;28;20420;-76
2022/08/09 00:48:01;;;;;;;10.70;6.40;;;21.80;30.80;;;;;;4951386;29;20289;-76
2022/08/09 00:50:27;;;;;;;11.60;6.47;;;21.90;30.60;;;;;;4953085;29;20669;-77
2022/08/09 00:52:52;;;;;;;7.80;6.33;;;21.70;30.30;;;;;;4953388;29;20467;-76
2022/08/09 00:55:18;;;;;;;10.70;7.40;;;21.60;31.60;;;;;;4953655;29;20223;-76
2022/08/09 00:57:44;;;;;;;13.80;9.97;;;21.60;30.10;;;;;;4953764;29;20208;-76
2022/08/09 01:00:11;;;;;;;12.00;9.90;;;21.40;30.20;;;;;;4952287;29;20967;-76
2022/08/09 01:02:41;;;;;;;10.00;8.10;;;21.50;30.80;;;;;;4951984;28;20857;-75
2022/08/09 01:05:44;;;;;;;12.93;9.10;;;21.50;31.40;;;;;;4951536;29;20824;-76
2022/08/09 01:08:17;;;;;;;15.50;8.60;;;21.60;30.80;;;;;;4949705;28;20450;-76
2022/08/09 01:11:01;;;;;;;11.37;8.53;;;21.50;32.00;;;;;;4952781;29;20793;-75
2022/08/09 01:13:36;;;;;;;12.50;8.37;;;21.50;31.10;;;;;;4949510;28;20823;-76
2022/08/09 01:16:03;;;;;;;13.97;11.70;;;21.40;31.40;;;;;;4967458;28;20423;-76
2022/08/09 01:18:31;;;;;;;22.47;18.77;;;21.50;31.40;;;;;;4952468;29;20434;-76
2022/08/09 01:21:19;;;;;;;22.43;16.27;;;21.30;30.90;;;;;;4953428;28;20446;-75
2022/08/09 01:23:57;;;;;;;14.00;9.57;;;21.10;30.10;;;;;;4947654;29;20425;-75
2022/08/09 01:27:00;;;;;;;12.07;9.37;;;20.70;31.90;;;;;;4953887;29;20396;-74
2022/08/09 01:29:39;;;;;;;13.10;9.17;;;20.70;31.20;;;;;;4952344;29;20864;-76
2022/08/09 01:32:07;;;;;;;15.33;9.47;;;20.60;31.50;;;;;;4950994;28;20560;-76
2022/08/09 01:34:34;;;;;;;12.33;9.03;;;21.00;31.10;;;;;;4953313;28;20512;-74
2022/08/09 01:37:03;;;;;;;11.57;8.73;;;20.90;33.20;;;;;;4937631;29;20420;-75
2022/08/09 01:39:33;;;;;;;11.50;9.33;;;21.00;32.10;;;;;;4953210;29;20433;-74
2022/08/09 01:42:04;;;;;;;11.97;9.37;;;21.00;32.20;;;;;;4945245;29;20512;-75
2022/08/09 01:44:31;;;;;;;15.70;10.70;;;20.90;31.90;;;;;;4949789;29;20859;-75
2022/08/09 01:46:59;;;;;;;14.37;11.30;;;20.80;31.60;;;;;;4941857;29;20473;-76
2022/08/09 01:49:25;;;;;;;13.80;11.90;;;20.70;32.00;;;;;;4951202;28;20434;-76
2022/08/09 01:51:59;;;;;;;15.50;11.63;;;21.00;31.10;;;;;;4952062;28;20506;-76
2022/08/09 01:54:30;;;;;;;21.97;12.97;;;20.90;32.70;;;;;;4952548;29;20781;-76
2022/08/09 01:56:58;;;;;;;15.23;11.40;;;20.90;33.10;;;;;;4951939;28;20439;-76
2022/08/09 01:59:25;;;;;;;15.87;11.27;;;20.90;33.80;;;;;;4952736;28;20443;-75
2022/08/09 02:01:55;;;;;;;19.83;11.50;;;20.90;31.70;;;;;;4950458;29;20469;-76
2022/08/09 02:04:23;;;;;;;28.57;12.27;;;20.80;32.30;;;;;;4950845;28;20462;-76
2022/08/09 02:07:07;;;;;;;14.00;10.73;;;20.70;33.90;;;;;;4952164;28;20913;-77
2022/08/09 02:09:43;;;;;;;15.90;11.23;;;20.80;33.10;;;;;;4951960;28;20526;-75
2022/08/09 02:12:11;;;;;;;14.10;10.87;;;20.80;33.80;;;;;;4950550;28;20990;-76
2022/08/09 02:14:39;;;;;;;14.47;12.17;;;20.60;33.90;;;;;;4952613;29;20557;-76
2022/08/09 02:17:06;;;;;;;16.93;12.00;;;20.80;34.10;;;;;;4953289;29;20937;-77
2022/08/09 02:19:32;;;;;;;18.90;12.50;;;20.60;33.80;;;;;;4953230;29;20872;-76
2022/08/09 02:22:03;;;;;;;15.03;11.70;;;20.60;33.70;;;;;;4951784;28;20450;-76
2022/08/09 02:24:35;;;;;;;15.37;11.10;;;20.50;34.10;;;;;;4952238;29;20187;-77
2022/08/09 02:27:06;;;;;;;13.07;9.53;;;20.40;33.00;;;;;;4953316;28;20479;-76
2022/08/09 02:29:38;;;;;;;15.00;10.40;;;20.40;33.00;;;;;;4953063;29;20480;-77
2022/08/09 02:32:06;;;;;;;13.87;10.53;;;20.40;34.70;;;;;;4966751;28;20474;-76
2022/08/09 02:34:34;;;;;;;12.07;9.00;;;20.50;35.10;;;;;;4951654;28;20857;-76
2022/08/09 02:37:06;;;;;;;12.10;9.53;;;20.40;34.00;;;;;;4952696;29;20441;-76
2022/08/09 02:39:40;;;;;;;10.17;8.00;;;20.30;34.40;;;;;;4952925;28;20414;-76
2022/08/09 02:42:11;;;;;;;11.47;8.60;;;20.50;33.20;;;;;;4951687;28;20904;-77
2022/08/09 02:44:41;;;;;;;11.60;8.77;;;20.50;33.50;;;;;;4955725;29;20804;-76
2022/08/09 02:47:10;;;;;;;10.30;8.47;;;20.40;34.50;;;;;;4955683;28;20832;-76
2022/08/09 02:49:44;;;;;;;9.70;8.33;;;20.20;34.30;;;;;;4956419;28;20520;-76
2022/08/09 02:52:13;;;;;;;10.40;8.07;;;20.20;35.10;;;;;;4948346;28;20534;-77
2022/08/09 02:54:40;;;;;;;10.50;7.70;;;20.30;34.30;;;;;;4954719;29;20437;-76
2022/08/09 02:57:07;;;;;;;14.50;8.27;;;20.30;34.60;;;;;;4955998;29;20812;-76
2022/08/09 02:59:35;;;;;;;16.43;7.80;;;19.90;34.10;;;;;;4956334;28;20459;-76
2022/08/09 03:02:03;;;;;;;12.97;8.00;;;19.80;34.50;;;;;;4955756;28;20477;-76
2022/08/09 03:04:30;;;;;;;10.97;8.10;;;19.80;35.60;;;;;;4954880;29;20518;-75
2022/08/09 03:06:58;;;;;;;9.70;8.50;;;20.00;35.30;;;;;;4955019;29;20483;-76
2022/08/09 03:09:24;;;;;;;13.17;8.13;;;19.90;36.20;;;;;;4956149;29;20513;-76
2022/08/09 03:11:51;;;;;;;10.60;8.50;;;19.90;35.10;;;;;;4952483;28;20476;-76
2022/08/09 03:14:18;;;;;;;9.73;7.90;;;19.90;35.00;;;;;;4954806;28;20429;-76
2022/08/09 03:16:45;;;;;;;13.40;8.47;;;19.90;35.10;;;;;;4955121;28;20447;-76
2022/08/09 03:19:12;;;;;;;14.40;8.70;;;20.00;36.00;;;;;;4955561;29;20433;-77
2022/08/09 03:21:37;;;;;;;9.30;7.93;;;20.00;35.70;;;;;;4955074;28;20444;-76
2022/08/09 03:24:03;;;;;;;9.73;7.23;;;19.90;36.00;;;;;;4954918;29;20448;-76
2022/08/09 03:26:30;;;;;;;10.20;7.63;;;19.90;36.20;;;;;;4954665;29;20205;-76
2022/08/09 03:28:58;;;;;;;10.50;8.00;;;20.00;35.90;;;;;;4954910;28;20923;-76
2022/08/09 03:31:25;;;;;;;12.90;7.93;;;19.90;37.00;;;;;;4955335;28;20552;-75
2022/08/09 03:33:53;;;;;;;14.00;7.47;;;19.80;36.90;;;;;;4955224;28;20460;-77
2022/08/09 03:36:19;;;;;;;15.13;8.57;;;19.80;35.70;;;;;;4948093;29;20576;-76
2022/08/09 03:38:44;;;;;;;11.57;7.80;;;19.80;36.30;;;;;;4960580;29;20456;-76
2022/08/09 03:41:11;;;;;;;11.90;8.60;;;19.80;36.30;;;;;;4959390;29;20197;-77
2022/08/09 03:43:37;;;;;;;11.17;8.50;;;19.80;36.30;;;;;;4959016;28;20213;-77
2022/08/09 03:46:03;;;;;;;9.50;7.73;;;19.50;35.60;;;;;;4959890;29;20774;-77
2022/08/09 03:48:31;;;;;;;12.43;8.47;;;19.70;38.10;;;;;;4957535;29;20203;-77
2022/08/09 03:50:58;;;;;;;12.20;9.03;;;19.90;35.80;;;;;;4953749;29;20525;-76
2022/08/09 03:53:24;;;;;;;12.13;8.23;;;19.70;36.40;;;;;;4953018;28;20453;-75
2022/08/09 03:55:51;;;;;;;10.70;8.37;;;19.60;38.00;;;;;;4954664;28;20531;-75
2022/08/09 03:58:17;;;;;;;11.00;8.20;;;19.60;38.60;;;;;;4953988;29;20488;-76
2022/08/09 04:00:47;;;;;;;11.43;8.90;;;19.40;38.40;;;;;;4954350;28;20455;-76
2022/08/09 04:03:14;;;;;;;13.37;9.07;;;19.60;37.20;;;;;;4953023;29;20464;-75
2022/08/09 04:05:40;;;;;;;10.63;8.00;;;19.60;37.40;;;;;;4950618;29;20434;-76
2022/08/09 04:08:06;;;;;;;10.73;9.17;;;19.60;37.10;;;;;;4953746;29;20790;-77
2022/08/09 04:10:32;;;;;;;14.60;9.17;;;19.60;37.20;;;;;;4957931;28;20548;-76
2022/08/09 04:12:59;;;;;;;12.73;9.90;;;19.50;36.20;;;;;;4953890;28;20221;-77
2022/08/09 04:15:25;;;;;;;11.10;8.97;;;19.60;37.00;;;;;;4954600;28;20177;-76
2022/08/09 04:17:50;;;;;;;18.30;9.70;;;19.50;37.50;;;;;;4953610;29;20544;-75
2022/08/09 04:20:17;;;;;;;17.43;9.90;;;19.50;36.80;;;;;;4953876;28;20191;-76
2022/08/09 04:22:43;;;;;;;11.27;9.50;;;19.40;36.80;;;;;;4953173;29;20216;-77
2022/08/09 04:25:10;;;;;;;12.07;9.27;;;19.60;36.70;;;;;;4953996;29;20432;-76
2022/08/09 04:27:40;;;;;;;11.00;9.07;;;19.60;36.70;;;;;;4954210;29;20439;-77
2022/08/09 04:30:10;;;;;;;16.77;10.37;;;19.50;36.30;;;;;;4953462;29;20454;-76
2022/08/09 04:32:36;;;;;;;15.97;9.90;;;19.50;36.60;;;;;;4952592;28;20561;-78
2022/08/09 04:35:02;;;;;;;13.70;9.00;;;19.20;38.00;;;;;;4957349;29;20455;-76
2022/08/09 04:37:27;;;;;;;14.83;11.30;;;19.30;37.50;;;;;;4954424;28;20518;-76
2022/08/09 04:39:53;;;;;;;18.13;12.20;;;19.30;37.30;;;;;;4952054;29;20187;-75
2022/08/09 04:42:19;;;;;;;17.13;12.23;;;19.20;37.20;;;;;;4951357;28;20227;-76
2022/08/09 04:44:45;;;;;;;19.53;11.70;;;19.30;37.80;;;;;;4953139;28;20187;-76
2022/08/09 04:47:10;;;;;;;20.30;11.70;;;19.40;37.20;;;;;;4954427;29;20447;-77
2022/08/09 04:49:36;;;;;;;12.87;10.43;;;19.60;37.00;;;;;;4953468;28;20192;-76
2022/08/09 04:52:05;;;;;;;16.27;11.70;;;19.60;37.60;;;;;;4952129;28;20210;-76
2022/08/09 04:54:32;;;;;;;16.23;10.77;;;19.50;36.90;;;;;;4954020;28;20430;-76
2022/08/09 04:56:58;;;;;;;13.70;10.60;;;19.50;37.60;;;;;;4952762;29;20451;-75
2022/08/09 04:59:24;;;;;;;16.43;10.70;;;19.50;37.30;;;;;;4952484;29;20507;-76
2022/08/09 05:01:49;;;;;;;20.07;14.40;;;19.40;36.80;;;;;;4951941;28;20703;-76
2022/08/09 05:04:15;;;;;;;22.50;15.37;;;19.40;37.30;;;;;;4953062;29;20443;-76
2022/08/09 05:06:41;;;;;;;19.27;15.10;;;19.30;36.20;;;;;;4953396;28;20556;-76
2022/08/09 05:09:07;;;;;;;21.00;14.97;;;19.40;37.20;;;;;;4952538;29;20467;-76
2022/08/09 05:11:33;;;;;;;20.60;15.00;;;19.60;36.80;;;;;;4951139;29;20233;-76
2022/08/09 05:13:58;;;;;;;28.40;13.20;;;19.70;36.20;;;;;;4954186;29;20445;-77
2022/08/09 05:16:24;;;;;;;18.23;12.90;;;19.70;36.80;;;;;;4954009;28;20180;-76
2022/08/09 05:18:50;;;;;;;17.20;12.97;;;19.80;36.90;;;;;;4955950;28;20224;-78
2022/08/09 05:21:16;;;;;;;18.93;11.60;;;19.60;34.90;;;;;;4956206;28;20205;-78
2022/08/09 05:23:42;;;;;;;16.03;11.43;;;19.40;35.10;;;;;;4960342;28;20212;-78
2022/08/09 05:26:07;;;;;;;18.50;10.90;;;19.20;37.00;;;;;;4966874;28;20467;-77
2022/08/09 05:28:33;;;;;;;20.60;11.90;;;19.20;37.20;;;;;;4966597;28;20192;-77
2022/08/09 05:30:59;;;;;;;20.40;12.43;;;19.40;36.90;;;;;;4966272;29;20194;-78
2022/08/09 05:33:24;;;;;;;17.40;12.47;;;19.90;36.00;;;;;;4965855;29;20457;-76
2022/08/09 05:35:50;;;;;;;17.63;12.60;;;20.10;34.90;;;;;;4963068;29;20259;-77
2022/08/09 05:38:16;;;;;;;20.87;12.67;;;20.10;36.70;;;;;;4950619;29;20185;-77
2022/08/09 05:40:42;;;;;;;16.27;13.00;;;20.20;35.20;;;;;;4955523;28;20177;-77
2022/08/09 05:43:07;;;;;;;16.17;11.90;;;20.10;34.10;;;;;;4951717;28;20480;-77
2022/08/09 05:45:33;;;;;;;20.60;13.03;;;19.90;34.80;;;;;;4953007;29;20237;-77
2022/08/09 05:47:59;;;;;;;20.17;12.20;;;19.90;36.70;;;;;;4952742;29;20178;-76
2022/08/09 05:50:24;;;;;;;23.03;11.87;;;20.20;35.80;;;;;;4951960;29;20178;-74
2022/08/09 05:52:51;;;;;;;19.37;12.47;;;19.60;35.40;;;;;;4952675;29;20258;-77
2022/08/09 05:55:16;;;;;;;22.80;12.73;;;19.50;35.40;;;;;;4953771;28;20183;-77
2022/08/09 05:57:43;;;;;;;18.37;12.03;;;19.30;36.00;;;;;;4953473;28;20425;-75
2022/08/09 06:00:09;;;;;;;16.93;12.07;;;19.30;36.10;;;;;;4950840;28;20186;-75
2022/08/09 06:02:35;;;;;;;14.90;11.13;;;19.60;36.80;;;;;;4950372;28;20458;-74
2022/08/09 06:05:01;;;;;;;14.50;11.40;;;19.60;35.50;;;;;;4952507;29;20942;-76
2022/08/09 06:07:28;;;;;;;15.80;10.93;;;19.60;36.00;;;;;;4953457;28;20211;-76
2022/08/09 06:09:54;;;;;;;18.87;10.40;;;19.90;33.70;;;;;;4953022;28;20482;-75
2022/08/09 06:12:20;;;;;;;16.73;11.23;;;19.80;34.50;;;;;;4951872;28;20573;-74
2022/08/09 06:14:45;;;;;;;15.27;11.07;;;20.10;36.50;;;;;;4950712;29;20514;-74
2022/08/09 06:17:11;;;;;;;11.60;8.80;;;;;;;;;;4951609;28;20221;-75
2022/08/09 06:19:37;;;;;;;12.43;10.13;;;20.00;33.00;;;;;;4956709;28;20210;-75
2022/08/09 06:22:03;;;;;;;13.57;9.90;;;20.00;34.40;;;;;;4954115;28;21026;-78
2022/08/09 06:24:28;;;;;;;14.10;10.03;;;19.90;33.40;;;;;;4956144;28;20271;-75
2022/08/09 06:26:54;;;;;;;13.87;10.20;;;20.10;35.10;;;;;;4953669;29;20926;-75
2022/08/09 06:29:20;;;;;;;18.70;11.53;;;20.80;34.60;;;;;;4948093;29;20187;-74
2022/08/09 06:31:45;;;;;;;22.83;11.57;;;20.20;32.40;;;;;;4955606;29;20675;-75
2022/08/09 06:34:11;;;;;;;29.13;12.13;;;20.20;33.50;;;;;;4955491;29;20648;-74
2022/08/09 06:36:37;;;;;;;20.47;12.23;;;20.40;33.00;;;;;;4956899;28;20185;-75
2022/08/09 06:39:03;;;;;;;18.60;12.80;;;20.80;32.10;;;;;;4956695;29;20293;-75
2022/08/09 06:41:28;;;;;;;20.17;12.50;;;20.80;32.50;;;;;;4952717;28;20217;-76
2022/08/09 06:43:54;;;;;;;19.93;12.37;;;20.70;32.20;;;;;;4955775;29;20986;-75
2022/08/09 06:46:20;;;;;;;22.97;11.70;;;20.90;31.10;;;;;;4956521;28;20196;-76
2022/08/09 06:48:45;;;;;;;31.43;12.57;;;21.00;31.10;;;;;;4955969;28;20186;-77
2022/08/09 06:51:12;;;;;;;24.13;11.40;;;21.00;31.50;;;;;;4956117;29;20188;-76
2022/08/09 06:53:38;;;;;;;27.47;10.77;;;21.30;30.40;;;;;;4950584;28;20230;-77
2022/08/09 06:56:05;;;;;;;17.17;11.03;;;20.90;31.60;;;;;;4962744;28;20442;-76
2022/08/09 06:58:30;;;;;;;17.07;11.07;;;21.30;32.20;;;;;;4956153;28;20819;-76
2022/08/09 07:00:56;;;;;;;17.93;11.80;;;21.20;30.80;;;;;;4955731;29;20420;-76
2022/08/09 07:03:23;;;;;;;17.70;11.47;;;21.10;30.20;;;;;;4953456;28;20288;-75
2022/08/09 07:05:49;;;;;;;17.43;10.97;;;21.30;29.90;;;;;;4954075;28;20185;-75
2022/08/09 07:08:15;;;;;;;19.33;10.73;;;21.30;30.40;;;;;;4956186;28;20543;-75
2022/08/09 07:10:41;;;;;;;19.53;9.50;;;21.00;30.20;;;;;;4955308;28;20791;-75
2022/08/09 07:13:07;;;;;;;13.80;8.87;;;21.00;30.40;;;;;;4954353;28;20473;-75
2022/08/09 07:15:32;;;;;;;15.80;9.80;;;21.60;30.90;;;;;;4954444;28;20263;-75
2022/08/09 07:17:58;;;;;;;16.80;9.93;;;21.80;29.20;;;;;;4954138;29;20686;-76
2022/08/09 07:20:27;;;;;;;15.50;8.73;;;22.10;29.70;;;;;;4953484;29;20198;-77
2022/08/09 07:22:52;;;;;;;15.70;8.80;;;22.50;29.00;;;;;;4952372;29;20226;-77
2022/08/09 07:25:19;;;;;;;15.33;9.63;;;22.20;28.90;;;;;;4951504;28;20501;-76
2022/08/09 07:27:45;;;;;;;16.00;9.50;;;21.80;30.00;;;;;;4953992;29;20464;-75
2022/08/09 07:30:12;;;;;;;12.20;8.83;;;21.80;30.70;;;;;;5000359;23;20499;-72
2022/08/09 07:32:39;;;;;;;13.67;7.90;;;22.10;30.70;;;;;;4990281;28;20511;-71
2022/08/09 07:35:07;;;;;;;12.37;8.73;;;21.70;31.30;;;;;;4992826;28;20425;-73
2022/08/09 07:37:32;;;;;;;15.17;8.30;;;22.20;32.40;;;;;;4991017;28;20916;-75
2022/08/09 07:39:58;;;;;;;14.53;8.80;;;22.50;30.00;;;;;;4993851;28;20444;-75
2022/08/09 07:42:24;;;;;;;13.83;9.30;;;22.70;30.40;;;;;;4992217;28;20175;-74
2022/08/09 07:44:50;;;;;;;16.73;9.33;;;23.30;29.00;;;;;;4990977;28;20751;-74
2022/08/09 07:47:16;;;;;;;17.53;8.90;;;23.20;28.30;;;;;;4993531;28;20180;-73
2022/08/09 07:49:42;;;;;;;13.17;9.00;;;23.20;29.60;;;;;;4994306;28;20435;-72
2022/08/09 07:52:07;;;;;;;16.93;8.80;;;23.70;29.00;;;;;;4993129;28;20464;-73
2022/08/09 07:54:33;;;;;;;16.70;9.23;;;24.00;27.60;;;;;;4993621;28;20178;-74
2022/08/09 07:57:00;;;;;;;12.70;8.50;;;23.90;27.90;;;;;;4978753;28;20192;-73
2022/08/09 07:59:25;;;;;;;14.73;8.67;;;24.20;27.60;;;;;;4985901;28;20201;-71
2022/08/09 08:01:54;;;;;;;13.90;8.23;;;23.70;28.60;;;;;;4990299;28;20805;-75
2022/08/09 08:04:20;;;;;;;16.43;8.83;;;23.50;29.50;;;;;;4991789;28;20236;-74
2022/08/09 08:06:46;;;;;;;17.17;9.33;;;23.70;28.60;;;;;;4989629;28;20821;-74
2022/08/09 08:09:11;;;;;;;16.63;8.53;;;23.00;29.70;;;;;;4993676;28;20449;-76
2022/08/09 08:11:37;;;;;;;14.20;8.10;;;23.40;29.50;;;;;;4992401;28;20209;-75
2022/08/09 08:14:03;;;;;;;14.13;8.47;;;23.40;29.40;;;;;;4988847;28;20185;-74
2022/08/09 08:16:29;;;;;;;11.83;7.80;;;23.30;29.50;;;;;;4989296;28;20979;-72
2022/08/09 08:18:56;;;;;;;15.30;7.17;;;23.50;29.40;;;;;;4976831;28;20205;-71
2022/08/09 08:21:22;;;;;;;11.27;7.17;;;23.60;29.70;;;;;;4991654;28;20983;-74
2022/08/09 08:23:48;;;;;;;12.97;7.40;;;24.20;29.00;;;;;;4991593;28;20504;-72
2022/08/09 08:26:13;;;;;;;9.73;7.23;;;24.50;28.50;;;;;;4991485;28;20850;-71
2022/08/09 08:28:39;;;;;;;9.03;6.30;;;24.40;27.70;;;;;;4990268;28;20192;-72
2022/08/09 08:31:05;;;;;;;12.77;6.90;;;24.20;29.30;;;;;;4974495;28;20213;-72
2022/08/09 08:33:30;;;;;;;8.13;6.23;;;24.80;29.40;;;;;;4993046;28;20296;-72
2022/08/09 08:35:56;;;;;;;12.63;7.47;;;25.20;27.80;;;;;;4993326;28;20177;-72
2022/08/09 08:38:22;;;;;;;12.80;6.80;;;25.70;27.60;;;;;;4992366;28;20274;-72
2022/08/09 08:40:48;;;;;;;18.67;6.90;;;25.70;26.00;;;;;;4991543;28;20205;-72
2022/08/09 08:43:14;;;;;;;12.40;6.10;;;26.00;26.90;;;;;;4992977;28;20184;-72
2022/08/09 08:45:46;;;;;;;14.93;6.80;;;26.20;26.00;;;;;;4993158;28;20413;-72
2022/08/09 08:48:12;;;;;;;10.13;6.20;;;26.30;25.80;;;;;;4992242;28;20324;-71
2022/08/09 08:50:38;;;;;;;14.30;6.50;;;26.50;25.70;;;;;;4992833;28;20433;-71
2022/08/09 08:53:04;;;;;;;9.67;6.23;;;25.90;26.00;;;;;;4992495;28;20456;-72
2022/08/09 08:55:30;;;;;;;10.93;6.10;;;26.40;25.90;;;;;;4992748;28;20417;-72
2022/08/09 08:57:55;;;;;;;5.90;5.30;;;26.80;24.20;;;;;;4975225;28;20185;-71
2022/08/09 09:00:21;;;;;;;10.10;6.30;;;27.00;24.50;;;;;;4974335;28;20522;-72
2022/08/09 09:02:49;;;;;;;8.07;5.70;;;27.10;23.50;;;;;;4992422;28;20224;-71
2022/08/09 09:05:23;;;;;;;9.53;6.00;;;27.10;23.90;;;;;;4992637;28;20202;-72
2022/08/09 09:07:49;;;;;;;11.63;5.73;;;27.20;24.30;;;;;;4992428;28;20836;-72
2022/08/09 09:10:16;;;;;;;12.30;6.00;;;27.20;23.70;;;;;;4991047;28;20480;-72
2022/08/09 09:12:44;;;;;;;13.50;5.67;;;27.40;23.30;;;;;;4992247;28;20460;-71
2022/08/09 09:15:10;;;;;;;17.60;5.07;;;27.50;22.70;;;;;;4992449;28;21140;-71
2022/08/09 09:17:36;;;;;;;9.63;5.27;;;27.50;22.30;;;;;;4992664;28;20423;-71
2022/08/09 09:20:10;;;;;;;6.80;5.13;;;27.60;22.70;;;;;;4973609;28;20606;-71
2022/08/09 09:22:52;;;;;;;7.00;5.30;;;27.00;22.20;;;;;;4991906;28;20408;-71
2022/08/09 09:25:33;;;;;;;10.90;5.00;;;26.60;21.90;;;;;;4992406;28;21095;-71
2022/08/09 09:27:59;;;;;;;10.37;5.70;;;27.10;22.70;;;;;;4992451;28;20404;-71
2022/08/09 09:30:25;;;;;;;11.07;5.13;;;27.60;23.50;;;;;;4991430;28;20465;-71
2022/08/09 09:33:02;;;;;;;9.40;4.87;;;28.00;20.50;;;;;;4990374;28;20982;-70
2022/08/09 09:35:28;;;;;;;6.50;4.67;;;28.40;19.60;;;;;;4992137;28;20182;-72
2022/08/09 09:37:53;;;;;;;10.73;4.83;;;28.60;17.80;;;;;;4992320;28;20495;-71
2022/08/09 09:40:19;;;;;;;8.67;4.67;;;28.30;16.60;;;;;;4991259;28;20623;-70
2022/08/09 09:42:55;;;;;;;7.70;4.40;;;28.60;16.40;;;;;;4972093;28;20625;-72
2022/08/09 09:45:22;;;;;;;5.53;4.60;;;28.80;16.90;;;;;;4991359;28;20177;-71
2022/08/09 09:47:48;;;;;;;18.97;4.03;;;29.00;15.80;;;;;;4991873;28;20413;-71
2022/08/09 09:50:20;;;;;;;8.33;4.63;;;29.00;16.40;;;;;;4974412;28;20447;-72
2022/08/09 09:52:51;;;;;;;6.63;4.17;;;28.90;16.00;;;;;;4989712;28;20452;-72
2022/08/09 09:55:16;;;;;;;9.43;3.90;;;29.00;16.20;;;;;;4991542;28;20444;-72
2022/08/09 09:57:58;;;;;;;9.20;4.07;;;29.20;15.90;;;;;;4991251;28;20429;-72
2022/08/09 10:00:24;;;;;;;8.50;4.10;;;29.40;16.40;;;;;;4989296;28;20693;-71
2022/08/09 10:02:49;;;;;;;6.83;3.97;;;29.40;16.00;;;;;;4991214;28;20461;-72
2022/08/09 10:05:15;;;;;;;10.00;4.30;;;29.40;16.10;;;;;;4991789;28;20448;-72
2022/08/09 10:07:41;;;;;;;6.00;4.20;;;29.50;15.30;;;;;;4991835;28;20185;-72
2022/08/09 10:10:07;;;;;;;8.67;4.30;;;29.70;14.90;;;;;;4991881;28;20743;-72
2022/08/09 10:12:35;;;;;;;4.13;3.50;;;29.70;14.60;;;;;;4990985;28;20556;-73
2022/08/09 10:15:14;;;;;;;6.03;4.50;;;29.00;15.90;;;;;;4991682;28;20420;-72
2022/08/09 10:17:42;;;;;;;8.33;4.20;;;28.90;16.10;;;;;;4991920;28;20401;-72
2022/08/09 10:20:16;;;;;;;3.93;3.80;;;29.20;15.70;;;;;;4991745;28;20448;-72
2022/08/09 10:22:42;;;;;;;8.70;3.70;;;29.80;15.20;;;;;;4973286;28;20845;-71
2022/08/09 10:25:08;;;;;;;10.67;4.03;;;29.90;14.60;;;;;;4991506;28;20857;-72
2022/08/09 10:27:34;;;;;;;10.03;3.97;;;29.70;14.20;;;;;;4991841;28;20182;-73
2022/08/09 10:30:06;;;;;;;5.23;3.90;;;29.60;15.50;;;;;;4991316;28;20457;-72
2022/08/09 10:32:36;;;;;;;6.00;4.57;;;29.80;14.80;;;;;;4990355;28;20484;-73
2022/08/09 10:35:02;;;;;;;8.67;4.37;;;30.00;15.10;;;;;;4973613;28;20452;-73
2022/08/09 10:37:28;;;;;;;10.93;3.80;;;29.90;15.00;;;;;;4972098;28;20417;-73
2022/08/09 10:39:53;;;;;;;15.47;4.03;;;30.00;15.90;;;;;;4971959;28;20434;-73
2022/08/09 10:42:20;;;;;;;6.90;4.10;;;29.70;14.60;;;;;;4971619;28;20192;-72
2022/08/09 10:44:53;;;;;;;7.00;4.20;;;29.60;15.50;;;;;;4983401;28;20613;-73
2022/08/09 10:47:43;;;;;;;10.70;4.03;;;29.30;14.70;;;;;;4991558;28;20569;-72
2022/08/09 10:50:27;;;;;;;9.57;4.40;;;29.80;14.70;;;;;;4991325;28;20515;-73
2022/08/09 10:53:04;;;;;;;10.07;4.07;;;30.60;15.70;;;;;;4990876;28;20460;-72
2022/08/09 10:55:31;;;;;;;8.63;4.37;;;30.90;15.00;;;;;;4988748;28;20429;-73
2022/08/09 10:57:57;;;;;;;7.60;3.70;;;31.30;13.60;;;;;;4989674;28;20466;-72
2022/08/09 11:00:36;;;;;;;8.60;4.20;;;31.40;13.00;;;;;;4986768;28;20464;-72
2022/08/09 11:03:17;;;;;;;16.87;4.00;;;31.50;13.40;;;;;;4981349;28;20285;-71
2022/08/09 11:06:14;;;;;;;6.13;3.93;;;31.70;14.30;;;;;;4991113;28;20532;-73
2022/08/09 11:08:48;;;;;;;7.97;3.90;;;31.70;12.40;;;;;;4986763;28;20439;-72
2022/08/09 11:11:16;;;;;;;5.30;3.90;;;31.70;12.40;;;;;;4993510;28;20963;-72
2022/08/09 11:13:41;;;;;;;7.07;4.20;;;31.90;13.40;;;;;;4992030;28;20813;-71
2022/08/09 11:16:30;;;;;;;13.03;4.07;;;31.70;11.30;;;;;;4989360;28;20449;-72
2022/08/09 11:18:56;;;;;;;7.47;3.90;;;32.00;11.90;;;;;;4991840;28;20213;-71
2022/08/09 11:21:49;;;;;;;9.17;3.60;;;32.10;11.20;;;;;;4992242;28;20445;-72
2022/08/09 11:24:16;;;;;;;6.33;3.50;;;31.90;12.00;;;;;;4990771;28;20268;-72
2022/08/09 11:26:43;;;;;;;3.80;3.60;;;31.90;11.50;;;;;;4982380;28;20441;-73
2022/08/09 11:29:47;;;;;;;6.00;3.40;;;31.70;11.80;;;;;;4992935;28;20534;-72
2022/08/09 11:32:38;;;;;;;5.00;3.50;;;32.60;9.90;;;;;;4992653;28;20475;-73
2022/08/09 11:35:14;;;;;;;5.00;3.10;;;33.80;11.40;;;;;;4986600;28;20429;-73
2022/08/09 11:37:41;;;;;;;6.03;3.00;;;35.10;9.50;;;;;;4988153;28;20443;-73
2022/08/09 11:40:12;;;;;;;3.90;2.97;;;35.80;7.50;;;;;;4989649;28;20452;-73
2022/08/09 11:42:40;;;;;;;3.53;3.00;;;36.20;6.80;;;;;;4991223;28;20464;-73
2022/08/09 11:45:21;;;;;;;6.43;3.03;;;36.20;7.00;;;;;;4992736;28;20531;-72
2022/08/09 11:47:56;;;;;;;5.40;3.33;;;36.90;5.90;;;;;;4991337;28;20798;-73
2022/08/09 11:50:22;;;;;;;3.47;3.00;;;36.60;6.30;;;;;;4974548;28;20441;-73
2022/08/09 11:53:17;;;;;;;7.10;3.10;;;37.00;6.60;;;;;;4974215;28;20864;-73
2022/08/09 11:55:43;;;;;;;3.50;2.83;;;37.70;6.00;;;;;;4973479;28;20424;-73
2022/08/09 11:58:14;;;;;;;3.60;2.80;;;37.30;4.60;;;;;;4974414;28;20422;-73
2022/08/09 12:01:07;;;;;;;5.43;2.83;;;37.10;5.10;;;;;;4973840;28;20531;-73
2022/08/09 12:03:34;;;;;;;6.20;3.10;;;37.30;6.00;;;;;;4974277;28;20434;-73
2022/08/09 12:06:07;;;;;;;4.40;3.20;;;37.40;6.30;;;;;;4956369;28;20430;-73
2022/08/09 12:08:33;;;;;;;4.00;2.93;;;37.80;5.10;;;;;;4973645;28;20874;-72
2022/08/09 12:10:59;;;;;;;6.63;3.00;;;36.90;5.80;;;;;;4973755;28;20421;-72
2022/08/09 12:13:33;;;;;;;5.07;3.10;;;36.60;6.00;;;;;;4975208;28;20202;-72
2022/08/09 12:16:10;;;;;;;5.30;3.10;;;36.40;6.90;;;;;;4973157;28;20418;-73
2022/08/09 12:18:38;;;;;;;5.63;3.43;;;37.30;7.50;;;;;;4973506;28;20414;-73
2022/08/09 12:21:06;;;;;;;4.53;3.10;;;38.60;5.10;;;;;;4973823;28;20421;-73
2022/08/09 12:23:39;;;;;;;4.47;2.97;;;38.30;4.50;;;;;;4973708;28;20428;-73
2022/08/09 12:26:05;;;;;;;6.90;3.30;;;38.80;5.00;;;;;;4991799;28;20421;-72
2022/08/09 12:28:31;;;;;;;4.53;3.10;;;38.60;4.10;;;;;;4993382;28;20439;-73
2022/08/09 12:30:56;;;;;;;4.40;3.07;;;38.10;4.70;;;;;;4992736;28;20264;-73
2022/08/09 12:33:23;;;;;;;5.10;2.97;;;38.60;4.20;;;;;;4975599;28;20304;-73
2022/08/09 12:36:03;;;;;;;5.80;3.20;;;38.40;5.10;;;;;;4991929;28;20213;-73
2022/08/09 12:38:29;;;;;;;7.20;3.07;;;38.00;6.10;;;;;;4993194;28;20412;-73
2022/08/09 12:40:57;;;;;;;3.57;3.10;;;39.00;3.80;;;;;;4974572;28;20818;-73
2022/08/09 12:43:27;;;;;;;3.90;2.90;;;39.40;4.40;;;;;;4992658;28;20430;-73
2022/08/09 12:45:55;;;;;;;4.10;3.13;;;39.00;3.50;;;;;;4992796;28;20420;-73